Time;durP1;ratioP1;P1;durP2;ratioP2;P2;SDS_P1;SDS_P2;PMS_P1;PMS_P2;Temp;Humidity;BMP_temperature;BMP_pressure;BME280_temperature;BME280_humidity;BME280_pressure;Samples;Min_cycle;Max_cycle;Signal;HPM_P1;HPM_P2
2022/07/29 00:00:53;;;;;;;2.08;1.08;;;14.00;99.90;;;;;;5004387;28;20188;-81
2022/07/29 00:03:18;;;;;;;1.50;1.10;;;14.00;99.90;;;;;;5006298;28;20179;-80
2022/07/29 00:05:44;;;;;;;3.97;1.30;;;14.00;99.90;;;;;;5004434;28;20180;-81
2022/07/29 00:08:09;;;;;;;3.03;1.10;;;15.30;99.90;;;;;;5004936;28;20180;-81
2022/07/29 00:10:35;;;;;;;3.90;1.00;;;14.10;99.90;;;;;;5006194;28;20288;-82
2022/07/29 00:13:01;;;;;;;2.55;1.20;;;14.10;99.90;;;;;;5004715;28;20319;-81
2022/07/29 00:15:27;;;;;;;2.47;1.10;;;14.10;99.90;;;;;;5004799;28;20191;-81
2022/07/29 00:17:52;;;;;;;1.77;1.00;;;14.10;99.90;;;;;;5005898;28;20203;-82
2022/07/29 00:20:18;;;;;;;2.92;1.10;;;14.20;99.90;;;;;;5004418;28;20299;-82
2022/07/29 00:22:44;;;;;;;2.58;1.13;;;14.20;99.90;;;;;;5004210;28;20227;-81
2022/07/29 00:25:11;;;;;;;2.30;1.10;;;14.10;99.90;;;;;;5004527;28;20191;-82
2022/07/29 00:27:37;;;;;;;2.13;1.10;;;14.20;99.90;;;;;;5005475;28;20186;-82
2022/07/29 00:30:04;;;;;;;3.22;0.90;;;14.20;99.90;;;;;;5003693;28;20274;-82
2022/07/29 00:32:30;;;;;;;3.45;1.10;;;14.20;99.90;;;;;;5012020;28;20199;-82
2022/07/29 00:37:39;;;;;;;3.45;1.45;;;14.20;99.90;;;;;;5005621;28;21277;-81
2022/07/29 00:40:06;;;;;;;2.70;1.30;;;14.20;99.90;;;;;;5004518;28;20226;-83
2022/07/29 00:42:44;;;;;;;2.03;1.10;;;14.30;99.90;;;;;;5012967;28;20221;-80
2022/07/29 00:45:11;;;;;;;2.97;1.17;;;14.30;99.90;;;;;;5012941;28;20172;-81
2022/07/29 00:47:36;;;;;;;3.65;1.20;;;14.30;99.90;;;;;;5004373;28;20653;-81
2022/07/29 00:50:04;;;;;;;3.03;1.02;;;14.30;65.80;;;;;;5003463;28;20194;-82
2022/07/29 00:52:29;;;;;;;3.42;1.20;;;14.40;13.70;;;;;;5005534;28;20693;-81
2022/07/29 00:54:56;;;;;;;2.25;1.05;;;14.40;53.90;;;;;;5003532;28;20206;-81
2022/07/29 00:57:21;;;;;;;2.58;1.23;;;14.50;1.00;;;;;;5002906;28;20290;-83
2022/07/29 00:59:47;;;;;;;5.22;1.10;;;14.50;1.00;;;;;;5005201;28;20313;-81
2022/07/29 01:02:12;;;;;;;3.55;1.10;;;14.50;1.00;;;;;;5005436;28;20222;-81
2022/07/29 01:04:39;;;;;;;2.75;1.23;;;14.50;1.00;;;;;;5004210;28;20262;-81
2022/07/29 01:07:04;;;;;;;3.25;1.10;;;14.50;1.00;;;;;;5020656;28;21237;-81
2022/07/29 01:09:35;;;;;;;3.55;1.10;;;14.50;1.00;;;;;;5004518;28;20187;-82
2022/07/29 01:12:02;;;;;;;1.65;0.98;;;15.70;1.00;;;;;;5003939;28;20211;-81
2022/07/29 01:14:28;;;;;;;3.45;1.00;;;14.50;1.00;;;;;;5004363;28;20282;-82
2022/07/29 01:17:23;;;;;;;2.58;1.20;;;14.50;94.10;;;;;;5012744;28;20218;-80
2022/07/29 01:20:06;;;;;;;5.53;1.25;;;14.60;99.90;;;;;;5005480;28;20309;-82
2022/07/29 01:22:35;;;;;;;2.88;1.17;;;14.60;1.00;;;;;;5011742;28;20203;-81
2022/07/29 01:25:22;;;;;;;4.88;1.20;;;14.60;1.00;;;;;;5005263;28;20180;-80
2022/07/29 01:28:20;;;;;;;4.55;1.52;;;14.50;1.00;;;;;;5013322;28;20188;-82
2022/07/29 01:30:47;;;;;;;4.55;1.00;;;14.50;1.00;;;;;;5004815;28;20183;-81
2022/07/29 01:33:48;;;;;;;2.40;1.00;;;14.50;39.80;;;;;;5004835;28;20223;-83
2022/07/29 01:36:10;;;;;;;3.40;1.23;;;14.50;99.90;;;;;;5008190;28;20194;-82
2022/07/29 01:38:39;;;;;;;2.97;1.00;;;14.50;99.90;;;;;;5007762;28;20190;-83
2022/07/29 01:41:24;;;;;;;3.50;1.00;;;14.70;99.90;;;;;;5007384;28;20191;-83
2022/07/29 01:44:14;;;;;;;2.30;1.08;;;14.60;99.90;;;;;;5007495;28;20203;-83
2022/07/29 01:46:48;;;;;;;2.47;1.33;;;14.60;99.90;;;;;;5007664;28;20191;-83
2022/07/29 01:49:17;;;;;;;2.55;1.20;;;14.60;95.20;;;;;;5006974;28;20183;-82
2022/07/29 01:51:58;;;;;;;3.33;1.27;;;14.60;99.90;;;;;;5015690;28;20211;-81
2022/07/29 01:54:30;;;;;;;3.40;1.35;;;14.70;99.90;;;;;;5009019;28;20187;-80
2022/07/29 01:56:59;;;;;;;7.00;1.10;;;14.60;1.00;;;;;;5007008;28;21027;-83
2022/07/29 01:59:25;;;;;;;4.35;1.08;;;14.60;96.90;;;;;;5007310;28;20184;-82
2022/07/29 02:01:54;;;;;;;2.67;1.08;;;14.60;99.90;;;;;;5008701;28;20202;-83
2022/07/29 02:04:21;;;;;;;5.00;1.55;;;14.60;99.90;;;;;;5006863;28;20180;-83
2022/07/29 02:06:49;;;;;;;1.65;0.93;;;15.60;99.90;;;;;;5006794;28;20188;-84
2022/07/29 02:09:17;;;;;;;3.03;1.10;;;14.60;99.90;;;;;;5006923;28;20258;-83
2022/07/29 02:11:50;;;;;;;2.85;1.20;;;14.60;99.90;;;;;;5016060;28;20575;-83
2022/07/29 02:14:22;;;;;;;3.35;1.02;;;14.50;99.90;;;;;;5006973;28;20638;-81
2022/07/29 02:16:51;;;;;;;4.90;1.35;;;14.50;99.90;;;;;;5014875;28;20707;-84
2022/07/29 02:19:19;;;;;;;3.15;1.30;;;14.50;99.90;;;;;;5014541;28;20168;-84
2022/07/29 02:21:46;;;;;;;2.03;0.90;;;14.50;99.90;;;;;;5014890;28;20207;-81
2022/07/29 02:24:12;;;;;;;1.33;0.95;;;14.40;99.90;;;;;;5006497;28;20282;-85
2022/07/29 02:26:41;;;;;;;1.90;1.27;;;14.50;99.90;;;;;;5008168;28;20184;-85
2022/07/29 02:29:08;;;;;;;3.45;1.05;;;14.80;99.90;;;;;;5007622;28;20559;-82
2022/07/29 02:31:35;;;;;;;2.55;1.20;;;14.40;99.90;;;;;;5008569;28;20552;-82
2022/07/29 02:34:06;;;;;;;4.32;1.20;;;15.20;99.90;;;;;;5007894;28;20283;-82
2022/07/29 02:36:33;;;;;;;2.50;1.00;;;14.40;99.90;;;;;;5006965;28;20720;-83
2022/07/29 02:39:01;;;;;;;2.28;1.40;;;14.40;99.90;;;;;;5006050;28;20275;-81
2022/07/29 02:41:41;;;;;;;1.63;1.23;;;14.40;99.90;;;;;;5007429;28;21320;-82
2022/07/29 02:44:13;;;;;;;2.90;1.27;;;14.30;99.90;;;;;;5007748;28;20217;-82
2022/07/29 02:46:49;;;;;;;3.13;1.13;;;14.30;99.90;;;;;;5007759;28;20175;-81
2022/07/29 02:49:36;;;;;;;2.38;1.40;;;14.40;99.90;;;;;;5014183;28;20831;-82
2022/07/29 02:52:06;;;;;;;1.75;1.00;;;14.30;99.90;;;;;;5016200;28;20195;-82
2022/07/29 02:54:42;;;;;;;2.08;1.10;;;14.30;1.00;;;;;;5014752;28;20262;-82
2022/07/29 02:57:18;;;;;;;2.72;1.02;;;14.30;99.90;;;;;;5013756;28;20590;-81
2022/07/29 02:59:47;;;;;;;3.38;1.10;;;14.40;99.90;;;;;;5013705;28;20182;-81
2022/07/29 03:02:15;;;;;;;1.98;0.90;;;13.90;99.90;;;;;;5014500;28;20207;-83
2022/07/29 03:04:42;;;;;;;3.33;1.10;;;14.40;99.90;;;;;;5006161;28;20175;-82
2022/07/29 03:07:10;;;;;;;5.03;1.60;;;14.40;99.90;;;;;;5006410;28;20183;-83
2022/07/29 03:09:36;;;;;;;2.00;1.20;;;14.40;99.90;;;;;;5014252;28;20415;-82
2022/07/29 03:12:03;;;;;;;3.67;1.10;;;14.30;99.90;;;;;;5006106;28;20290;-84
2022/07/29 03:14:30;;;;;;;1.98;1.10;;;14.40;99.90;;;;;;5013224;28;20286;-82
2022/07/29 03:16:57;;;;;;;3.35;1.10;;;14.40;99.90;;;;;;5014352;28;20211;-82
2022/07/29 03:19:23;;;;;;;1.13;0.90;;;15.40;99.90;;;;;;5014652;28;20176;-82
2022/07/29 03:21:49;;;;;;;2.33;1.15;;;14.30;99.90;;;;;;5005921;28;20282;-82
2022/07/29 03:24:28;;;;;;;2.22;1.20;;;14.60;99.90;;;;;;5006055;28;20175;-81
2022/07/29 03:26:56;;;;;;;3.85;1.40;;;14.40;1.00;;;;;;5013417;28;20199;-84
2022/07/29 03:29:21;;;;;;;2.05;1.10;;;14.40;1.00;;;;;;5007363;28;20184;-83
2022/07/29 03:31:47;;;;;;;1.50;0.80;;;14.40;99.90;;;;;;5005447;28;20226;-84
2022/07/29 03:34:12;;;;;;;1.40;1.08;;;14.40;1.00;;;;;;5013338;28;20199;-83
2022/07/29 03:36:38;;;;;;;3.95;1.20;;;14.50;99.90;;;;;;5005218;28;20207;-81
2022/07/29 03:39:05;;;;;;;2.97;1.10;;;14.50;99.90;;;;;;5006955;28;20175;-81
2022/07/29 03:41:32;;;;;;;1.77;0.98;;;14.50;99.90;;;;;;5013874;28;21346;-82
2022/07/29 03:43:59;;;;;;;4.30;1.15;;;14.50;99.90;;;;;;5005793;28;21039;-81
2022/07/29 03:46:28;;;;;;;2.95;1.20;;;14.50;99.90;;;;;;5012724;28;20604;-82
2022/07/29 03:49:00;;;;;;;1.10;1.00;;;14.50;99.90;;;;;;5006732;28;20219;-82
2022/07/29 03:51:26;;;;;;;3.25;1.30;;;14.50;99.90;;;;;;5006494;28;20282;-81
2022/07/29 03:53:52;;;;;;;2.47;1.05;;;14.60;99.90;;;;;;5006794;28;20180;-83
2022/07/29 03:56:21;;;;;;;2.20;1.00;;;14.60;99.90;;;;;;5004549;28;20695;-81
2022/07/29 03:58:49;;;;;;;2.30;1.00;;;14.70;51.90;;;;;;5006194;28;20214;-83
2022/07/29 04:01:17;;;;;;;4.05;1.40;;;14.70;1.00;;;;;;5013516;28;20321;-81
2022/07/29 04:03:45;;;;;;;2.20;1.30;;;14.70;53.20;;;;;;5004868;28;20242;-83
2022/07/29 04:06:11;;;;;;;3.38;1.38;;;16.00;99.90;;;;;;5013222;28;20271;-81
2022/07/29 04:08:37;;;;;;;2.28;1.20;;;14.80;99.90;;;;;;5005179;28;20180;-79
2022/07/29 04:11:03;;;;;;;2.70;1.20;;;14.80;99.90;;;;;;5004233;28;20204;-82
2022/07/29 04:13:29;;;;;;;1.77;1.20;;;14.70;99.90;;;;;;5006398;28;20643;-80
2022/07/29 04:15:55;;;;;;;2.63;1.30;;;14.70;99.90;;;;;;5004681;28;20184;-80
2022/07/29 04:18:21;;;;;;;3.25;1.10;;;14.80;99.90;;;;;;5004905;28;20199;-81
2022/07/29 04:20:46;;;;;;;2.53;1.20;;;14.80;99.90;;;;;;5004576;28;20194;-81
2022/07/29 04:23:12;;;;;;;4.35;1.20;;;15.80;99.90;;;;;;5004650;28;20179;-79
2022/07/29 04:25:38;;;;;;;5.88;1.80;;;14.80;99.90;;;;;;5005483;28;20680;-80
2022/07/29 04:28:04;;;;;;;3.75;1.75;;;14.90;99.90;;;;;;5012703;28;20215;-81
2022/07/29 04:30:32;;;;;;;5.00;1.40;;;15.30;99.90;;;;;;5006066;28;20180;-81
2022/07/29 04:32:58;;;;;;;2.80;1.08;;;15.60;99.90;;;;;;5003986;28;20308;-81
2022/07/29 04:35:23;;;;;;;1.63;1.20;;;14.90;99.90;;;;;;5012893;28;20188;-80
2022/07/29 04:37:49;;;;;;;3.17;1.55;;;15.00;99.90;;;;;;5004242;28;20207;-81
2022/07/29 04:40:15;;;;;;;4.80;1.40;;;15.10;99.90;;;;;;5005800;28;20725;-82
2022/07/29 04:42:40;;;;;;;2.03;1.38;;;15.10;99.90;;;;;;5005635;28;20700;-80
2022/07/29 04:45:06;;;;;;;6.75;1.25;;;15.10;99.90;;;;;;5004875;28;20223;-81
2022/07/29 04:47:32;;;;;;;2.10;1.00;;;15.20;99.90;;;;;;5004856;28;20215;-81
2022/07/29 04:49:57;;;;;;;2.20;1.10;;;15.30;99.90;;;;;;5004317;28;20215;-81
2022/07/29 04:52:23;;;;;;;3.20;1.48;;;15.30;99.90;;;;;;5005348;28;20207;-81
2022/07/29 04:54:49;;;;;;;2.22;1.38;;;15.40;99.90;;;;;;5004569;28;20191;-81
2022/07/29 04:57:14;;;;;;;4.32;1.20;;;15.30;99.90;;;;;;5004132;28;20201;-81
2022/07/29 04:59:40;;;;;;;2.40;1.33;;;15.40;1.00;;;;;;5004278;28;20183;-83
2022/07/29 05:02:05;;;;;;;2.67;1.40;;;15.50;1.00;;;;;;5004038;28;20286;-83
2022/07/29 05:04:31;;;;;;;1.85;1.30;;;15.50;99.90;;;;;;5004591;28;20673;-81
2022/07/29 05:06:56;;;;;;;2.67;1.40;;;16.10;99.90;;;;;;5005287;28;20627;-83
2022/07/29 05:09:22;;;;;;;1.80;1.00;;;15.60;99.90;;;;;;5007398;28;20753;-81
2022/07/29 05:11:47;;;;;;;2.20;1.13;;;15.70;72.60;;;;;;5007928;28;20225;-81
2022/07/29 05:14:13;;;;;;;2.65;1.25;;;15.80;41.70;;;;;;5008380;28;20176;-81
2022/07/29 05:16:40;;;;;;;1.92;1.15;;;16.00;43.20;;;;;;5007953;28;20207;-81
2022/07/29 05:19:05;;;;;;;2.15;1.23;;;16.10;1.00;;;;;;5007897;28;20205;-81
2022/07/29 05:21:31;;;;;;;3.10;1.38;;;16.20;1.00;;;;;;5007661;28;20674;-81
2022/07/29 05:23:57;;;;;;;2.00;1.25;;;17.50;99.90;;;;;;5007506;28;20191;-82
2022/07/29 05:26:22;;;;;;;2.95;1.50;;;16.30;99.90;;;;;;5009362;28;20226;-83
2022/07/29 05:28:48;;;;;;;2.53;1.35;;;16.30;99.90;;;;;;5005797;28;20182;-81
2022/07/29 05:31:14;;;;;;;1.80;1.30;;;16.80;1.00;;;;;;5006783;28;20195;-83
2022/07/29 05:33:40;;;;;;;2.13;1.30;;;17.50;1.00;;;;;;5007345;28;20222;-85
2022/07/29 05:36:07;;;;;;;3.90;1.45;;;17.40;1.00;;;;;;5007805;28;20207;-85
2022/07/29 05:38:36;;;;;;;2.10;1.50;;;17.30;99.90;;;;;;5008090;28;20270;-83
2022/07/29 05:41:01;;;;;;;2.25;1.40;;;16.80;99.90;;;;;;5007947;28;20206;-82
2022/07/29 05:43:27;;;;;;;6.13;1.75;;;16.80;99.90;;;;;;5007749;28;20179;-80
2022/07/29 05:45:53;;;;;;;5.75;1.83;;;17.00;99.90;;;;;;5008701;28;20233;-82
2022/07/29 05:48:19;;;;;;;5.28;1.77;;;17.10;1.00;;;;;;5007973;28;20183;-81
2022/07/29 05:50:44;;;;;;;3.53;1.23;;;17.30;1.00;;;;;;5007138;28;20215;-82
2022/07/29 05:53:10;;;;;;;3.08;1.65;;;17.40;99.90;;;;;;5007842;28;20179;-79
2022/07/29 05:55:35;;;;;;;2.75;1.45;;;17.90;99.90;;;;;;5007847;28;20194;-81
2022/07/29 05:58:01;;;;;;;3.72;1.48;;;17.40;1.00;;;;;;5006863;28;20203;-81
2022/07/29 06:00:26;;;;;;;5.00;1.65;;;17.40;1.00;;;;;;5007071;28;20172;-82
2022/07/29 06:02:52;;;;;;;3.72;1.80;;;17.50;1.00;;;;;;5007433;28;20222;-82
2022/07/29 06:05:17;;;;;;;4.55;2.03;;;17.60;99.90;;;;;;5008365;28;20555;-82
2022/07/29 06:07:44;;;;;;;3.97;1.90;;;17.30;1.00;;;;;;5007270;28;20183;-81
2022/07/29 06:10:10;;;;;;;2.13;1.45;;;17.60;1.00;;;;;;5007187;28;20768;-81
2022/07/29 06:12:36;;;;;;;5.88;1.98;;;17.70;1.00;;;;;;5005572;28;20369;-81
2022/07/29 06:15:01;;;;;;;3.75;1.48;;;17.60;99.90;;;;;;5006876;28;20689;-81
2022/07/29 06:17:27;;;;;;;2.20;1.60;;;17.60;1.00;;;;;;5004962;28;20214;-81
2022/07/29 06:19:52;;;;;;;4.10;1.73;;;18.00;1.00;;;;;;5005213;28;20551;-81
2022/07/29 06:22:18;;;;;;;3.17;1.92;;;17.40;99.90;;;;;;5006310;28;20207;-81
2022/07/29 06:24:44;;;;;;;2.58;1.67;;;17.90;1.00;;;;;;5006132;28;20253;-81
2022/07/29 06:27:12;;;;;;;4.30;1.88;;;17.90;99.90;;;;;;5006262;28;20194;-81
2022/07/29 06:29:38;;;;;;;5.00;1.98;;;17.60;83.60;;;;;;5006577;28;20283;-82
2022/07/29 06:32:04;;;;;;;3.72;1.90;;;18.70;99.90;;;;;;5007643;28;20211;-81
2022/07/29 06:34:30;;;;;;;3.53;1.88;;;18.00;1.00;;;;;;5008240;28;20206;-83
2022/07/29 06:36:55;;;;;;;4.75;1.80;;;18.50;1.00;;;;;;5005074;28;20211;-81
2022/07/29 06:39:21;;;;;;;4.90;2.00;;;19.60;99.90;;;;;;5006109;28;20184;-81
2022/07/29 06:41:50;;;;;;;7.18;2.45;;;20.30;99.90;;;;;;5004201;28;20415;-81
2022/07/29 06:44:17;;;;;;;2.75;2.08;;;20.00;54.00;;;;;;5006592;28;20184;-81
2022/07/29 06:46:43;;;;;;;2.92;2.20;;;20.00;1.00;;;;;;5014820;28;20192;-81
2022/07/29 06:49:13;;;;;;;3.95;2.15;;;20.30;1.00;;;;;;5005660;28;20988;-82
2022/07/29 06:51:39;;;;;;;3.33;1.98;;;20.40;1.00;;;;;;5006905;28;20261;-81
2022/07/29 06:54:05;;;;;;;3.95;1.80;;;19.90;1.00;;;;;;5002952;28;20187;-81
2022/07/29 06:56:31;;;;;;;3.30;1.80;;;19.80;99.90;;;;;;4997987;28;20222;-82
2022/07/29 06:58:57;;;;;;;4.70;1.90;;;19.70;99.90;;;;;;4997253;28;20195;-81
2022/07/29 07:01:23;;;;;;;4.18;1.90;;;20.60;99.90;;;;;;4995600;28;20195;-82
2022/07/29 07:03:48;;;;;;;4.95;1.98;;;20.30;1.00;;;;;;5003131;28;20183;-83
2022/07/29 07:06:14;;;;;;;2.63;1.75;;;20.40;1.00;;;;;;5002880;28;20180;-81
2022/07/29 07:08:39;;;;;;;4.15;1.98;;;20.70;1.00;;;;;;5003390;28;20179;-82
2022/07/29 07:11:06;;;;;;;3.38;1.85;;;21.20;99.90;;;;;;5002505;28;20235;-83
2022/07/29 07:13:34;;;;;;;4.75;1.90;;;21.90;3.00;;;;;;5003518;28;20616;-81
2022/07/29 07:16:00;;;;;;;7.00;2.20;;;22.30;1.00;;;;;;5003014;28;20180;-83
2022/07/29 07:18:26;;;;;;;4.70;1.80;;;23.20;1.00;;;;;;5001405;28;20215;-83
2022/07/29 07:20:52;;;;;;;4.18;1.85;;;23.50;1.00;;;;;;5002300;28;20180;-82
2022/07/29 07:23:17;;;;;;;3.40;1.80;;;24.30;1.00;;;;;;5003918;28;20183;-84
2022/07/29 07:25:43;;;;;;;6.32;1.98;;;23.70;1.00;;;;;;5001782;28;20672;-82
2022/07/29 07:28:09;;;;;;;3.75;2.00;;;24.20;99.90;;;;;;5003419;28;20195;-82
2022/07/29 07:30:35;;;;;;;4.30;2.42;;;24.20;99.90;;;;;;5003089;28;20270;-81
2022/07/29 07:33:00;;;;;;;7.70;2.28;;;22.90;99.90;;;;;;5003787;28;20717;-82
2022/07/29 07:35:27;;;;;;;8.27;2.60;;;22.40;99.90;;;;;;5002548;28;20218;-81
2022/07/29 07:37:55;;;;;;;6.30;2.15;;;22.20;1.00;;;;;;5003262;28;20207;-82
2022/07/29 07:40:21;;;;;;;3.80;2.17;;;21.90;1.00;;;;;;5005710;28;20649;-81
2022/07/29 07:42:46;;;;;;;3.80;1.70;;;21.90;1.00;;;;;;5003735;28;20346;-80
2022/07/29 07:45:13;;;;;;;3.83;1.80;;;22.10;1.00;;;;;;5005097;28;20222;-83
2022/07/29 07:47:39;;;;;;;4.70;2.00;;;21.80;1.00;;;;;;5004808;28;20755;-81
2022/07/29 07:50:06;;;;;;;3.08;2.10;;;22.10;1.00;;;;;;5003802;28;20192;-82
2022/07/29 07:52:32;;;;;;;6.70;1.95;;;21.70;1.00;;;;;;5004791;28;20218;-82
2022/07/29 07:54:57;;;;;;;7.15;2.55;;;22.40;1.00;;;;;;5005041;28;20191;-81
2022/07/29 07:57:23;;;;;;;8.25;1.90;;;21.50;1.00;;;;;;5006909;28;20700;-82
2022/07/29 07:59:48;;;;;;;5.93;1.90;;;22.10;1.00;;;;;;5004889;28;20274;-80
2022/07/29 08:02:14;;;;;;;4.00;2.00;;;22.50;1.00;;;;;;5004192;28;20226;-82
2022/07/29 08:04:40;;;;;;;4.70;1.92;;;22.90;99.90;;;;;;5005534;28;20187;-84
2022/07/29 08:07:07;;;;;;;2.67;1.80;;;22.90;99.90;;;;;;5004807;28;20713;-81
2022/07/29 08:09:34;;;;;;;2.28;1.60;;;23.30;99.90;;;;;;5006126;28;20764;-81
2022/07/29 08:12:03;;;;;;;4.15;1.90;;;23.20;99.90;;;;;;5005436;28;21134;-81
2022/07/29 08:14:30;;;;;;;3.22;2.28;;;23.30;99.90;;;;;;5004200;28;20179;-81
2022/07/29 08:16:56;;;;;;;4.03;1.98;;;23.00;99.90;;;;;;5003903;28;20227;-82
2022/07/29 08:19:23;;;;;;;4.18;1.88;;;23.10;99.90;;;;;;5004694;28;20282;-82
2022/07/29 08:21:48;;;;;;;4.70;1.73;;;23.50;99.90;;;;;;5005275;28;20278;-81
2022/07/29 08:26:58;;;;;;;3.88;2.10;;;24.00;99.90;;;;;;5005051;28;20210;-85
2022/07/29 08:29:24;;;;;;;2.53;1.85;;;23.70;99.90;;;;;;5003117;28;20191;-82
2022/07/29 08:31:49;;;;;;;3.88;2.35;;;23.90;99.90;;;;;;5003508;28;20258;-83
2022/07/29 08:34:15;;;;;;;5.75;2.05;;;23.90;99.90;;;;;;4995820;28;20669;-80
2022/07/29 08:36:40;;;;;;;6.50;2.45;;;23.90;99.90;;;;;;5001088;28;20207;-84
2022/07/29 08:39:06;;;;;;;4.50;2.15;;;23.90;99.90;;;;;;5006668;28;20202;-82
2022/07/29 08:41:32;;;;;;;4.90;2.50;;;23.90;99.90;;;;;;4999258;28;20608;-82
2022/07/29 08:43:58;;;;;;;4.55;2.03;;;24.20;99.90;;;;;;5004704;28;20179;-82
2022/07/29 08:46:24;;;;;;;5.80;2.30;;;24.30;99.90;;;;;;5003995;28;20185;-82
2022/07/29 08:48:50;;;;;;;5.15;2.38;;;24.00;99.90;;;;;;5005508;28;20183;-82
2022/07/29 08:51:18;;;;;;;3.53;2.05;;;23.80;99.90;;;;;;5003572;28;20202;-83
2022/07/29 08:53:47;;;;;;;4.50;1.95;;;23.90;99.90;;;;;;5005430;28;20171;-82
2022/07/29 08:56:16;;;;;;;5.03;2.40;;;23.90;99.90;;;;;;5003187;28;20190;-81
2022/07/29 08:58:42;;;;;;;6.13;2.10;;;24.20;99.90;;;;;;5012736;28;20187;-80
2022/07/29 09:01:10;;;;;;;5.32;2.22;;;24.50;99.90;;;;;;5002062;28;20234;-80
2022/07/29 09:03:38;;;;;;;3.10;2.25;;;24.60;99.90;;;;;;5000018;28;20282;-84
2022/07/29 09:06:05;;;;;;;3.10;2.00;;;25.30;99.90;;;;;;4999102;28;20817;-85
2022/07/29 09:08:34;;;;;;;4.63;2.38;;;24.50;99.90;;;;;;5000312;28;20230;-83
2022/07/29 09:11:03;;;;;;;6.10;2.13;;;24.50;99.90;;;;;;4999366;28;20208;-85
2022/07/29 09:13:28;;;;;;;5.13;2.65;;;24.50;99.90;;;;;;4999806;28;20210;-83
2022/07/29 09:15:54;;;;;;;5.93;2.50;;;24.70;99.90;;;;;;5000810;28;20277;-82
2022/07/29 09:18:36;;;;;;;3.13;2.08;;;25.30;99.90;;;;;;5001598;28;20203;-84
2022/07/29 09:24:03;;;;;;;7.43;2.40;;;25.00;99.90;;;;;;5002883;28;20198;-83
2022/07/29 09:26:33;;;;;;;3.50;2.00;;;25.40;99.90;;;;;;5001135;28;20270;-83
2022/07/29 09:28:59;;;;;;;3.80;2.10;;;25.50;99.90;;;;;;5001651;28;20204;-83
2022/07/29 09:31:38;;;;;;;3.17;2.00;;;25.50;99.90;;;;;;5000839;28;20282;-83
2022/07/29 09:34:04;;;;;;;4.40;2.33;;;24.80;99.90;;;;;;5002443;28;20195;-83
2022/07/29 09:36:30;;;;;;;2.60;2.15;;;24.70;99.90;;;;;;5002182;28;20191;-83
2022/07/29 09:39:02;;;;;;;4.75;2.30;;;24.90;99.90;;;;;;5004591;28;20184;-83
2022/07/29 09:41:29;;;;;;;4.72;2.10;;;24.90;99.90;;;;;;5002382;28;20226;-83
2022/07/29 09:43:59;;;;;;;3.80;2.28;;;25.00;99.90;;;;;;5002138;28;20190;-85
2022/07/29 09:46:25;;;;;;;5.07;2.00;;;24.90;99.90;;;;;;5004083;28;20583;-83
2022/07/29 09:49:12;;;;;;;4.45;2.13;;;25.10;99.90;;;;;;5001180;28;20183;-83
2022/07/29 09:51:38;;;;;;;3.88;1.88;;;24.80;99.90;;;;;;5001860;28;20192;-83
2022/07/29 09:54:23;;;;;;;8.10;2.58;;;24.90;99.90;;;;;;5003117;28;20179;-82
2022/07/29 09:56:49;;;;;;;5.60;2.50;;;24.90;99.90;;;;;;5005574;28;20248;-83
2022/07/29 09:59:14;;;;;;;4.78;2.22;;;25.00;99.90;;;;;;5004765;28;20203;-84
2022/07/29 10:01:40;;;;;;;4.80;2.08;;;25.10;99.90;;;;;;5003804;28;20246;-83
2022/07/29 10:04:06;;;;;;;4.78;2.20;;;25.00;99.90;;;;;;5005103;28;20183;-84
2022/07/29 10:06:32;;;;;;;4.05;2.30;;;25.30;99.90;;;;;;5004035;28;20183;-83
2022/07/29 10:09:10;;;;;;;3.35;1.75;;;25.60;99.90;;;;;;5004321;28;20351;-83
2022/07/29 10:11:37;;;;;;;4.10;2.30;;;25.40;99.90;;;;;;5005582;28;20211;-83
2022/07/29 10:14:03;;;;;;;5.28;2.22;;;25.40;99.90;;;;;;5004072;28;20444;-83
2022/07/29 10:16:32;;;;;;;3.97;2.10;;;25.30;99.90;;;;;;5005406;28;20756;-83
2022/07/29 10:18:59;;;;;;;4.07;2.00;;;25.10;99.90;;;;;;5004136;28;20257;-85
2022/07/29 10:21:25;;;;;;;3.35;2.22;;;25.30;99.90;;;;;;5004564;28;20208;-84
2022/07/29 10:23:52;;;;;;;4.43;2.10;;;25.70;99.90;;;;;;5013711;28;20222;-83
2022/07/29 10:26:19;;;;;;;3.20;2.25;;;25.60;99.90;;;;;;5007743;28;20188;-83
2022/07/29 10:28:45;;;;;;;5.55;2.55;;;25.80;99.90;;;;;;5013355;28;20523;-83
2022/07/29 10:31:22;;;;;;;3.70;2.10;;;26.30;99.90;;;;;;5001034;28;20286;-82
2022/07/29 10:34:27;;;;;;;2.97;2.25;;;26.20;99.90;;;;;;5001807;28;20574;-83
2022/07/29 10:37:18;;;;;;;4.22;2.22;;;26.10;99.90;;;;;;5022573;28;20704;-83
2022/07/29 10:43:19;;;;;;;4.53;2.42;;;26.80;99.90;;;;;;5007459;28;21799;-82
2022/07/29 10:45:48;;;;;;;6.47;2.70;;;27.10;99.90;;;;;;5007100;28;20187;-82
2022/07/29 10:48:14;;;;;;;4.57;2.40;;;26.50;99.90;;;;;;5005403;28;20229;-82
2022/07/29 10:50:55;;;;;;;6.25;2.55;;;26.30;99.90;;;;;;5005498;28;20179;-82
2022/07/29 10:53:24;;;;;;;3.25;2.28;;;26.50;99.90;;;;;;5008651;28;20183;-83
2022/07/29 10:55:51;;;;;;;7.75;3.05;;;27.00;99.90;;;;;;5002111;28;20234;-83
2022/07/29 10:58:18;;;;;;;9.52;3.58;;;27.70;99.90;;;;;;5002291;28;20214;-83
2022/07/29 11:00:45;;;;;;;6.85;2.90;;;27.70;99.90;;;;;;5002150;28;20180;-82
2022/07/29 11:03:47;;;;;;;5.43;2.90;;;27.70;99.90;;;;;;5003152;28;20326;-83
2022/07/29 11:06:13;;;;;;;7.35;3.55;;;27.30;99.90;;;;;;5008630;28;20189;-83
2022/07/29 11:08:39;;;;;;;6.20;3.05;;;27.40;99.90;;;;;;5003212;28;20192;-84
2022/07/29 11:11:25;;;;;;;3.17;2.50;;;27.60;99.90;;;;;;5005355;28;20207;-86
2022/07/29 11:13:54;;;;;;;3.03;2.53;;;27.40;99.90;;;;;;4989248;28;20274;-85
2022/07/29 11:16:21;;;;;;;4.20;2.90;;;27.60;99.90;;;;;;5003388;28;20218;-83
2022/07/29 11:19:12;;;;;;;5.68;3.03;;;27.50;99.90;;;;;;5003771;28;20543;-84
2022/07/29 11:21:43;;;;;;;4.55;2.78;;;27.30;99.90;;;;;;5004377;28;20199;-83
2022/07/29 11:24:20;;;;;;;4.05;2.92;;;27.20;99.90;;;;;;5005451;28;20259;-83
2022/07/29 11:27:06;;;;;;;7.63;2.78;;;26.90;99.90;;;;;;5005221;28;20229;-83
2022/07/29 11:29:34;;;;;;;4.60;2.50;;;26.80;99.90;;;;;;5004588;28;20179;-82
2022/07/29 11:32:12;;;;;;;4.35;2.70;;;26.60;99.90;;;;;;5004416;28;20210;-83
2022/07/29 11:34:40;;;;;;;6.53;2.90;;;26.90;99.90;;;;;;5008515;28;20202;-83
2022/07/29 11:37:09;;;;;;;8.60;3.47;;;26.40;99.90;;;;;;5003169;28;20199;-83
2022/07/29 11:39:39;;;;;;;5.90;2.83;;;25.90;99.20;;;;;;5004615;28;20183;-83
2022/07/29 11:42:19;;;;;;;2.72;2.42;;;25.80;99.90;;;;;;5004336;28;20203;-83
2022/07/29 11:45:06;;;;;;;5.15;2.47;;;25.60;98.90;;;;;;5003684;28;20656;-83
2022/07/29 11:47:33;;;;;;;6.07;2.60;;;25.70;99.70;;;;;;5004215;28;20191;-83
2022/07/29 11:50:00;;;;;;;5.00;2.72;;;25.50;99.90;;;;;;5003012;28;20264;-83
2022/07/29 11:52:45;;;;;;;4.63;2.67;;;25.80;99.90;;;;;;5012370;28;20199;-82
2022/07/29 11:55:16;;;;;;;3.97;2.92;;;25.80;99.90;;;;;;5003275;28;20274;-84
2022/07/29 11:57:47;;;;;;;6.03;2.65;;;25.80;99.90;;;;;;5008235;28;20206;-83
2022/07/29 12:00:25;;;;;;;6.82;3.10;;;25.70;98.70;;;;;;5002632;28;20582;-82
2022/07/29 12:02:51;;;;;;;3.53;2.60;;;25.90;99.10;;;;;;5002973;28;20774;-82
2022/07/29 12:05:17;;;;;;;4.88;2.42;;;26.10;99.90;;;;;;5002643;28;20247;-81
2022/07/29 12:07:43;;;;;;;4.32;2.92;;;26.10;99.90;;;;;;5002327;28;20180;-81
2022/07/29 12:10:09;;;;;;;4.47;2.55;;;26.40;99.10;;;;;;5003752;28;20205;-81
2022/07/29 12:12:35;;;;;;;5.32;2.78;;;26.50;96.00;;;;;;5002337;28;20203;-81
2022/07/29 12:15:20;;;;;;;3.03;2.72;;;26.30;94.90;;;;;;5002632;28;20183;-81
2022/07/29 12:17:46;;;;;;;5.30;2.83;;;26.00;93.70;;;;;;4999630;28;20211;-82
2022/07/29 12:20:12;;;;;;;4.57;2.72;;;26.00;95.20;;;;;;5001806;28;20187;-82
2022/07/29 12:22:40;;;;;;;3.72;2.47;;;25.70;92.60;;;;;;5002486;28;20211;-80
2022/07/29 12:25:18;;;;;;;3.75;2.63;;;25.70;92.40;;;;;;5018092;28;20536;-81
2022/07/29 12:27:44;;;;;;;3.78;2.70;;;25.80;92.30;;;;;;5000899;28;20167;-81
2022/07/29 12:30:13;;;;;;;4.75;2.75;;;26.00;91.70;;;;;;4998711;28;20184;-80
2022/07/29 12:32:49;;;;;;;3.92;2.60;;;25.80;91.30;;;;;;5002363;28;20230;-80
2022/07/29 12:35:17;;;;;;;3.40;2.67;;;26.00;90.40;;;;;;5004855;28;20194;-81
2022/07/29 12:37:47;;;;;;;3.63;2.65;;;25.90;90.60;;;;;;5002326;28;20209;-80
2022/07/29 12:40:16;;;;;;;5.25;2.78;;;25.90;88.70;;;;;;5001850;28;20227;-81
2022/07/29 12:43:01;;;;;;;4.55;2.83;;;25.80;89.80;;;;;;5001713;28;20203;-81
2022/07/29 12:45:30;;;;;;;4.65;3.00;;;25.80;94.90;;;;;;5008253;28;20479;-83
2022/07/29 12:47:56;;;;;;;3.75;2.92;;;26.00;97.20;;;;;;5000799;28;20784;-82
2022/07/29 12:50:22;;;;;;;4.72;3.17;;;26.10;81.10;;;;;;5002574;28;20199;-80
2022/07/29 12:52:48;;;;;;;4.13;2.60;;;26.00;79.60;;;;;;5002892;28;20215;-81
2022/07/29 12:55:14;;;;;;;3.13;2.72;;;26.00;81.60;;;;;;5003443;28;20191;-81
2022/07/29 12:57:52;;;;;;;4.68;3.13;;;25.80;81.70;;;;;;5001515;28;20788;-81
2022/07/29 13:00:23;;;;;;;4.38;3.10;;;26.00;82.60;;;;;;5003192;28;20187;-81
2022/07/29 13:02:55;;;;;;;6.20;3.30;;;26.00;78.20;;;;;;5000467;28;20195;-81
2022/07/29 13:05:21;;;;;;;5.82;3.30;;;26.10;77.60;;;;;;5002009;28;20530;-81
2022/07/29 13:07:47;;;;;;;5.40;3.00;;;26.10;77.40;;;;;;5001885;28;20187;-81